createdAt,value
2022-10-31T00:02:25.207Z,62.20
2022-10-31T00:05:28.542Z,65.72
2022-10-31T00:08:31.927Z,62.43
2022-10-31T00:11:34.962Z,79.57
2022-10-31T00:14:37.647Z,68.10
2022-10-31T00:17:40.355Z,58.38
2022-10-31T00:20:42.975Z,63.65
2022-10-31T00:23:46.187Z,60.90
2022-10-31T00:26:48.701Z,58.15
2022-10-31T00:29:51.550Z,59.85
2022-10-31T00:32:54.425Z,56.53
2022-10-31T00:35:57.993Z,55.08
2022-10-31T00:39:08.663Z,58.80
2022-10-31T00:42:12.025Z,49.63
2022-10-31T00:45:16.827Z,50.33
2022-10-31T00:48:20.007Z,51.83
2022-10-31T00:51:26.513Z,48.00
2022-10-31T00:54:32.439Z,45.77
2022-10-31T00:57:35.315Z,41.28
2022-10-31T01:00:40.547Z,43.38
2022-10-31T01:03:43.647Z,43.38
2022-10-31T01:06:48.336Z,47.95
2022-10-31T01:09:52.496Z,48.03
2022-10-31T01:12:56.128Z,37.08
2022-10-31T01:16:00.910Z,41.22
2022-10-31T01:19:04.065Z,34.38
2022-10-31T01:22:06.964Z,34.10
2022-10-31T01:25:11.376Z,35.60
2022-10-31T01:28:14.061Z,37.42
2022-10-31T01:31:19.560Z,35.40
2022-10-31T01:34:22.541Z,38.67
2022-10-31T01:37:26.470Z,40.10
2022-10-31T01:40:31.062Z,36.43
2022-10-31T01:43:54.126Z,31.05
2022-10-31T01:47:06.409Z,34.53
2022-10-31T01:50:14.860Z,33.70
2022-10-31T01:53:20.713Z,31.50
2022-10-31T01:56:26.752Z,36.40
2022-10-31T01:59:33.523Z,35.88
2022-10-31T02:02:37.943Z,34.53
2022-10-31T02:05:43.868Z,39.45
2022-10-31T02:08:47.240Z,40.88
2022-10-31T02:11:57.809Z,41.77
2022-10-31T02:15:00.956Z,44.28
2022-10-31T02:18:06.155Z,54.42
2022-10-31T02:21:27.156Z,48.38
2022-10-31T02:24:38.859Z,54.00
2022-10-31T02:28:03.094Z,49.30
2022-10-31T02:31:17.863Z,47.72
2022-10-31T02:34:34.697Z,43.80
2022-10-31T02:38:03.659Z,52.05
2022-10-31T02:41:19.556Z,50.90
2022-10-31T02:44:37.318Z,55.63
2022-10-31T02:47:40.098Z,52.00
2022-10-31T02:50:49.027Z,58.30
2022-10-31T02:53:51.776Z,53.15
2022-10-31T02:57:16.217Z,49.83
2022-10-31T03:00:18.838Z,41.87
2022-10-31T03:03:38.728Z,46.53
2022-10-31T03:06:55.332Z,45.25
2022-10-31T03:10:48.806Z,52.65
2022-10-31T03:14:05.981Z,48.25
2022-10-31T03:17:19.815Z,49.97
2022-10-31T03:20:29.136Z,45.85
2022-10-31T03:23:33.819Z,49.22
2022-10-31T03:26:40.160Z,45.60
2022-10-31T03:29:46.047Z,50.05
2022-10-31T03:32:55.623Z,47.37
2022-10-31T03:36:03.617Z,48.25
2022-10-31T03:39:12.061Z,45.45
2022-10-31T03:42:19.804Z,48.35
2022-10-31T03:45:31.328Z,44.67
2022-10-31T03:48:34.842Z,48.63
2022-10-31T03:51:57.782Z,47.05
2022-10-31T03:55:08.505Z,46.67
2022-10-31T03:58:29.568Z,51.13
2022-10-31T04:01:39.650Z,48.67
2022-10-31T04:04:45.623Z,51.67
2022-10-31T04:07:53.400Z,53.30
2022-10-31T04:10:58.788Z,51.55
2022-10-31T04:14:05.938Z,49.50
2022-10-31T04:17:16.435Z,53.38
2022-10-31T04:20:19.524Z,52.43
2022-10-31T04:23:26.329Z,57.42
2022-10-31T04:26:30.593Z,53.28
2022-10-31T04:29:33.999Z,54.47
2022-10-31T04:32:36.642Z,50.05
2022-10-31T04:35:40.689Z,55.73
2022-10-31T04:38:43.256Z,54.40
2022-10-31T04:41:46.401Z,51.53
2022-10-31T04:44:49.825Z,52.47
2022-10-31T04:47:57.596Z,57.55
2022-10-31T04:51:02.685Z,54.77
2022-10-31T04:54:07.614Z,52.97
2022-10-31T04:57:14.543Z,49.13
2022-10-31T05:00:21.553Z,53.90
2022-10-31T05:03:27.552Z,60.20
2022-10-31T05:06:31.485Z,61.07
2022-10-31T05:09:34.591Z,61.78
2022-10-31T05:12:37.764Z,54.25
2022-10-31T05:15:43.715Z,52.97
2022-10-31T05:18:50.010Z,51.37
2022-10-31T05:21:55.169Z,54.00
2022-10-31T05:24:59.771Z,52.88
2022-10-31T05:28:02.980Z,48.90
2022-10-31T05:31:07.121Z,50.85
2022-10-31T05:34:11.265Z,51.33
2022-10-31T05:37:18.074Z,57.63
2022-10-31T05:40:23.855Z,52.05
2022-10-31T05:43:29.221Z,61.08
2022-10-31T05:46:31.947Z,59.45
2022-10-31T05:49:38.144Z,63.53
2022-10-31T05:52:45.290Z,56.43
2022-10-31T05:55:49.885Z,60.95
2022-10-31T05:58:53.218Z,62.83
2022-10-31T06:01:57.474Z,60.90
2022-10-31T06:05:03.656Z,60.12
2022-10-31T06:08:10.578Z,61.70
2022-10-31T06:11:14.618Z,54.22
2022-10-31T06:14:21.491Z,56.60
2022-10-31T06:17:28.485Z,53.75
2022-10-31T06:20:41.460Z,51.42
2022-10-31T06:23:47.203Z,48.00
2022-10-31T06:26:51.249Z,47.25
2022-10-31T06:30:02.663Z,44.60
2022-10-31T06:33:07.804Z,48.00
2022-10-31T06:36:13.385Z,50.22
2022-10-31T06:39:17.365Z,43.70
2022-10-31T06:42:22.441Z,47.85
2022-10-31T06:45:28.080Z,47.42
2022-10-31T06:48:39.872Z,42.55
2022-10-31T06:51:44.617Z,47.53
2022-10-31T06:54:49.737Z,43.90
2022-10-31T06:58:03.110Z,46.13
2022-10-31T07:01:08.715Z,39.08
2022-10-31T07:04:19.488Z,36.45
2022-10-31T07:07:25.917Z,38.13
2022-10-31T07:10:37.426Z,39.23
2022-10-31T07:13:44.254Z,40.63
2022-10-31T07:16:55.819Z,32.83
2022-10-31T07:20:04.483Z,32.58
2022-10-31T07:23:15.997Z,28.27
2022-10-31T07:26:28.972Z,30.20
2022-10-31T07:29:33.103Z,27.20
2022-10-31T07:32:43.963Z,28.60
2022-10-31T07:35:49.136Z,26.23
2022-10-31T07:38:53.684Z,25.55
2022-10-31T07:42:00.405Z,23.07
2022-10-31T07:45:12.806Z,22.27
2022-10-31T07:48:40.345Z,24.83
2022-10-31T07:52:12.849Z,25.88
2022-10-31T07:55:29.048Z,25.23
2022-10-31T07:58:36.449Z,22.07
2022-10-31T08:01:44.409Z,25.70
2022-10-31T08:05:01.354Z,27.10
2022-10-31T08:08:32.180Z,23.77
2022-10-31T08:11:44.065Z,23.33
2022-10-31T08:14:49.657Z,22.40
2022-10-31T08:17:55.156Z,24.15
2022-10-31T08:21:13.718Z,22.27
2022-10-31T08:24:32.401Z,21.02
2022-10-31T08:27:38.688Z,21.02
2022-10-31T08:30:43.454Z,19.60
2022-10-31T08:33:54.411Z,22.98
2022-10-31T08:37:03.916Z,20.75
2022-10-31T08:40:14.548Z,21.08
2022-10-31T08:43:30.390Z,21.67
2022-10-31T08:46:44.881Z,21.27
2022-10-31T08:49:48.606Z,22.42
2022-10-31T08:53:06.276Z,23.98
2022-10-31T08:56:13.529Z,22.13
2022-10-31T08:59:23.942Z,20.10
2022-10-31T09:02:29.172Z,15.93
2022-10-31T09:05:34.791Z,21.48
2022-10-31T09:08:42.640Z,20.62
2022-10-31T09:11:49.503Z,19.48
2022-10-31T09:15:01.846Z,20.08
2022-10-31T09:18:15.590Z,19.63
2022-10-31T09:21:19.481Z,20.55
2022-10-31T09:24:25.836Z,20.48
2022-10-31T09:27:29.924Z,19.92
2022-10-31T09:30:36.445Z,22.20
2022-10-31T09:33:46.578Z,21.87
2022-10-31T09:36:54.976Z,21.65
2022-10-31T09:40:01.576Z,19.45
2022-10-31T09:43:11.610Z,17.90
2022-10-31T09:46:58.264Z,20.77
2022-10-31T09:50:30.336Z,18.40
2022-10-31T09:53:50.396Z,19.55
2022-10-31T09:57:13.471Z,21.20
2022-10-31T10:00:24.431Z,19.92
2022-10-31T10:03:43.926Z,20.25
2022-10-31T10:06:56.440Z,17.87
2022-10-31T10:10:13.649Z,20.40
2022-10-31T10:13:20.878Z,18.45
2022-10-31T10:17:08.780Z,18.23
2022-10-31T10:20:27.149Z,18.95
2022-10-31T10:24:00.970Z,18.63
2022-10-31T10:27:23.225Z,19.85
2022-10-31T10:30:56.462Z,18.77
2022-10-31T10:34:28.052Z,19.98
2022-10-31T10:37:40.430Z,20.98
2022-10-31T10:40:54.483Z,18.97
2022-10-31T10:44:00.962Z,16.87
2022-10-31T10:47:41.348Z,20.70
2022-10-31T10:50:52.524Z,16.77
2022-10-31T10:54:18.423Z,19.25
2022-10-31T10:57:34.536Z,14.77
2022-10-31T11:00:43.345Z,20.17
2022-10-31T11:03:47.902Z,18.80
2022-10-31T11:07:06.498Z,18.83
2022-10-31T11:10:16.253Z,18.85
2022-10-31T11:13:28.516Z,19.80
2022-10-31T11:16:43.333Z,19.23
2022-10-31T11:20:07.543Z,20.37
2022-10-31T11:23:31.367Z,19.35
2022-10-31T11:26:36.672Z,17.90
2022-10-31T11:29:47.848Z,19.07
2022-10-31T11:33:03.249Z,21.08
2022-10-31T11:36:36.466Z,18.30
2022-10-31T11:39:43.469Z,20.85
2022-10-31T11:43:04.354Z,20.33
2022-10-31T11:46:26.496Z,22.23
2022-10-31T11:49:52.457Z,19.20
2022-10-31T11:52:58.457Z,22.23
2022-10-31T11:56:15.433Z,20.45
2022-10-31T11:59:29.480Z,19.48
2022-10-31T12:02:35.534Z,25.97
2022-10-31T12:05:46.446Z,20.85
2022-10-31T12:08:51.159Z,22.58
2022-10-31T12:12:17.412Z,21.08
2022-10-31T12:15:29.456Z,23.52
2022-10-31T12:18:54.742Z,22.00
2022-10-31T12:22:19.802Z,19.55
2022-10-31T12:25:39.835Z,21.02
2022-10-31T12:29:08.661Z,19.48
2022-10-31T12:32:40.350Z,19.73
2022-10-31T12:36:15.744Z,21.75
2022-10-31T12:39:33.536Z,22.92
2022-10-31T12:43:00.946Z,19.92
2022-10-31T12:46:12.576Z,20.85
2022-10-31T12:49:41.462Z,20.37
2022-10-31T12:53:13.505Z,19.25
2022-10-31T12:56:37.536Z,21.62
2022-10-31T12:59:48.418Z,19.70
2022-10-31T13:03:23.409Z,23.42
2022-10-31T13:06:44.841Z,23.97
2022-10-31T13:09:58.658Z,23.02
2022-10-31T13:13:13.894Z,22.05
2022-10-31T13:16:23.771Z,24.87
2022-10-31T13:19:39.768Z,22.95
2022-10-31T13:23:01.692Z,24.83
2022-10-31T13:26:50.374Z,21.77
2022-10-31T13:30:22.363Z,22.23
2022-10-31T13:33:44.430Z,25.58
2022-10-31T13:37:03.180Z,22.20
2022-10-31T13:40:38.610Z,21.73
2022-10-31T13:44:25.043Z,18.92
2022-10-31T13:47:31.528Z,23.08
2022-10-31T13:50:35.653Z,23.17
2022-10-31T13:53:50.420Z,20.85
2022-10-31T13:56:56.606Z,24.97
2022-10-31T14:00:05.423Z,23.17
2022-10-31T14:03:36.313Z,23.12
2022-10-31T14:06:55.378Z,20.73
2022-10-31T14:10:23.003Z,25.05
2022-10-31T14:13:38.428Z,26.03
2022-10-31T14:16:46.413Z,25.77
2022-10-31T14:20:11.652Z,30.33
2022-10-31T14:23:41.578Z,25.88
2022-10-31T14:26:59.426Z,37.80
2022-10-31T14:30:19.723Z,30.53
2022-10-31T14:33:34.328Z,38.15
2022-10-31T14:37:28.299Z,51.75
2022-10-31T14:40:58.537Z,26.40
2022-10-31T14:44:38.704Z,42.88
2022-10-31T14:48:06.769Z,28.40
2022-10-31T14:51:45.374Z,29.30
2022-10-31T14:55:00.525Z,34.28
2022-10-31T14:58:11.532Z,45.70
2022-10-31T15:01:30.030Z,51.50
2022-10-31T15:04:40.675Z,32.80
2022-10-31T15:07:58.511Z,30.92
2022-10-31T15:11:20.417Z,33.08
2022-10-31T15:14:35.397Z,30.33
2022-10-31T15:18:01.386Z,26.15
2022-10-31T15:21:12.591Z,27.30
2022-10-31T15:24:26.324Z,27.58
2022-10-31T15:27:34.530Z,30.90
2022-10-31T15:30:41.457Z,28.60
2022-10-31T15:33:53.501Z,47.30
2022-10-31T15:36:59.142Z,29.57
2022-10-31T15:40:16.756Z,32.55
2022-10-31T15:43:20.441Z,27.35
2022-10-31T15:46:26.499Z,29.23
2022-10-31T15:49:48.381Z,29.35
2022-10-31T15:53:01.902Z,28.87
2022-10-31T15:56:12.472Z,29.60
2022-10-31T15:59:25.545Z,29.52
2022-10-31T16:02:29.183Z,30.12
2022-10-31T16:05:48.587Z,33.15
2022-10-31T16:08:55.615Z,30.20
2022-10-31T16:12:05.770Z,30.20
2022-10-31T16:15:18.121Z,29.40
2022-10-31T16:18:22.420Z,35.42
2022-10-31T16:21:46.342Z,34.90
2022-10-31T16:25:25.494Z,37.33
2022-10-31T16:28:31.959Z,43.97
2022-10-31T16:31:43.811Z,36.85
2022-10-31T16:35:03.713Z,31.95
2022-10-31T16:38:18.471Z,47.08
2022-10-31T16:41:31.370Z,33.17
2022-10-31T16:44:49.441Z,35.70
2022-10-31T16:47:53.471Z,35.95
2022-10-31T16:51:03.813Z,35.03
2022-10-31T16:54:14.883Z,33.65
2022-10-31T16:57:28.679Z,34.10
2022-10-31T17:00:45.335Z,35.75
2022-10-31T17:03:48.762Z,38.90
2022-10-31T17:07:02.425Z,34.45
2022-10-31T17:10:07.725Z,34.38
2022-10-31T17:13:18.494Z,33.77
2022-10-31T17:16:22.981Z,34.50
2022-10-31T17:19:44.320Z,35.42
2022-10-31T17:22:56.549Z,33.25
2022-10-31T17:26:01.422Z,36.13
2022-10-31T17:29:08.540Z,36.87
2022-10-31T17:32:21.602Z,38.38
2022-10-31T17:35:33.393Z,39.15
2022-10-31T17:38:43.451Z,45.60
2022-10-31T17:41:52.043Z,40.40
2022-10-31T17:44:57.451Z,40.97
2022-10-31T17:48:13.582Z,41.25
2022-10-31T17:51:27.672Z,42.83
2022-10-31T17:54:36.392Z,42.55
2022-10-31T17:57:40.234Z,44.40
2022-10-31T18:00:50.468Z,51.43
2022-10-31T18:04:02.499Z,54.75
2022-10-31T18:07:20.837Z,55.92
2022-10-31T18:10:37.408Z,49.33
2022-10-31T18:13:46.382Z,57.58
2022-10-31T18:16:55.708Z,52.03
2022-10-31T18:20:10.548Z,55.83
2022-10-31T18:23:16.060Z,53.83
2022-10-31T18:26:35.327Z,50.25
2022-10-31T18:29:40.006Z,44.80
2022-10-31T18:32:45.625Z,43.60
2022-10-31T18:35:49.642Z,43.13
2022-10-31T18:39:09.318Z,39.03
2022-10-31T18:42:19.335Z,41.65
2022-10-31T18:45:33.925Z,41.10
2022-10-31T18:48:47.359Z,44.23
2022-10-31T18:51:57.586Z,41.92
2022-10-31T18:55:02.454Z,35.17
2022-10-31T18:58:12.316Z,38.50
2022-10-31T19:01:21.112Z,35.63
2022-10-31T19:04:33.693Z,39.60
2022-10-31T19:07:49.632Z,35.20
2022-10-31T19:10:55.415Z,36.85
2022-10-31T19:14:04.387Z,36.72
2022-10-31T19:17:23.350Z,37.80
2022-10-31T19:20:36.507Z,31.73
2022-10-31T19:23:43.410Z,34.35
2022-10-31T19:26:51.948Z,39.33
2022-10-31T19:30:08.543Z,38.45
2022-10-31T19:33:34.873Z,35.85
2022-10-31T19:36:40.617Z,35.03
2022-10-31T19:40:01.326Z,30.48
2022-10-31T19:43:10.883Z,30.52
2022-10-31T19:46:22.748Z,31.85
2022-10-31T19:49:38.742Z,33.67
2022-10-31T19:52:55.444Z,38.47
2022-10-31T19:56:14.926Z,31.12
2022-10-31T19:59:20.939Z,30.40
2022-10-31T20:02:31.052Z,30.17
2022-10-31T20:05:49.412Z,29.87
2022-10-31T20:08:55.735Z,29.73
2022-10-31T20:12:05.384Z,29.05
2022-10-31T20:15:25.427Z,29.35
2022-10-31T20:18:36.404Z,30.10
2022-10-31T20:21:44.739Z,26.27
2022-10-31T20:24:50.521Z,26.53
2022-10-31T20:28:04.339Z,27.25
2022-10-31T20:31:17.409Z,30.37
2022-10-31T20:34:20.611Z,27.02
2022-10-31T20:37:31.649Z,30.70
2022-10-31T20:40:38.174Z,29.57
2022-10-31T20:44:02.456Z,30.25
2022-10-31T20:47:06.881Z,35.63
2022-10-31T20:50:11.051Z,31.87
2022-10-31T20:53:26.080Z,31.75
2022-10-31T20:56:37.945Z,28.03
2022-10-31T20:59:49.324Z,30.75
2022-10-31T21:02:56.469Z,25.80
2022-10-31T21:06:03.434Z,28.08
2022-10-31T21:09:12.992Z,27.40
2022-10-31T21:12:16.585Z,30.40
2022-10-31T21:15:25.912Z,31.10
2022-10-31T21:18:45.433Z,24.10
2022-10-31T21:21:52.576Z,29.50
2022-10-31T21:24:56.006Z,25.12
2022-10-31T21:27:59.604Z,27.60
2022-10-31T21:31:07.895Z,27.02
2022-10-31T21:34:11.788Z,34.53
2022-10-31T21:37:23.283Z,32.33
2022-10-31T21:40:35.435Z,31.15
2022-10-31T21:43:48.861Z,32.97
2022-10-31T21:47:01.666Z,28.58
2022-10-31T21:50:04.423Z,34.72
2022-10-31T21:53:27.216Z,32.47
2022-10-31T21:56:37.284Z,32.70
2022-10-31T21:59:47.678Z,30.00
2022-10-31T22:02:51.485Z,30.12
2022-10-31T22:05:59.681Z,30.55
2022-10-31T22:09:18.885Z,25.60
2022-10-31T22:12:22.205Z,28.02
2022-10-31T22:15:32.945Z,28.97
2022-10-31T22:18:37.002Z,23.83
2022-10-31T22:21:44.427Z,25.52
2022-10-31T22:24:53.050Z,35.45
2022-10-31T22:27:58.871Z,27.55
2022-10-31T22:31:08.562Z,23.83
2022-10-31T22:34:12.918Z,27.27
2022-10-31T22:37:19.735Z,25.98
2022-10-31T22:40:24.512Z,28.75
2022-10-31T22:43:27.576Z,31.65
2022-10-31T22:46:34.293Z,28.07
2022-10-31T22:49:44.325Z,28.55
2022-10-31T22:52:48.544Z,26.65
2022-10-31T22:55:51.787Z,26.52
2022-10-31T22:58:55.031Z,31.48
2022-10-31T23:01:59.775Z,34.50
2022-10-31T23:05:09.316Z,26.87
2022-10-31T23:08:13.710Z,28.12
2022-10-31T23:11:22.128Z,31.65
2022-10-31T23:14:29.762Z,31.80
2022-10-31T23:17:32.833Z,30.17
2022-10-31T23:20:36.485Z,29.52
2022-10-31T23:23:39.655Z,31.95
2022-10-31T23:27:03.394Z,27.95
2022-10-31T23:30:16.674Z,28.12
2022-10-31T23:33:21.963Z,32.33
2022-10-31T23:36:25.300Z,33.45
2022-10-31T23:39:28.711Z,34.45
2022-10-31T23:42:31.588Z,35.63
2022-10-31T23:45:34.354Z,34.72
2022-10-31T23:48:53.557Z,35.13
2022-10-31T23:51:58.126Z,32.75
2022-10-31T23:55:02.830Z,29.20
2022-10-31T23:58:06.698Z,30.55
